createdAt,value
2023-01-09T00:02:03.235Z,8.80
2023-01-09T00:04:30.741Z,10.30
2023-01-09T00:06:57.583Z,10.00
2023-01-09T00:09:28.211Z,13.00
2023-01-09T00:11:56.800Z,10.90
2023-01-09T00:14:29.374Z,9.80
2023-01-09T00:16:56.931Z,10.60
2023-01-09T00:19:24.079Z,11.30
2023-01-09T00:21:51.459Z,9.70
2023-01-09T00:24:19.093Z,8.80
2023-01-09T00:26:46.171Z,8.70
2023-01-09T00:29:13.307Z,9.60
2023-01-09T00:31:40.543Z,8.60
2023-01-09T00:34:10.053Z,7.50
2023-01-09T00:36:37.206Z,9.30
2023-01-09T00:39:06.213Z,7.70
2023-01-09T00:41:51.158Z,8.30
2023-01-09T00:44:25.638Z,9.20
2023-01-09T00:46:55.371Z,10.30
2023-01-09T00:49:22.645Z,7.70
2023-01-09T00:51:49.895Z,7.80
2023-01-09T00:54:19.917Z,7.40
2023-01-09T00:56:46.960Z,8.50
2023-01-09T00:59:14.539Z,9.50
2023-01-09T01:01:42.004Z,8.50
2023-01-09T01:04:28.172Z,6.50
2023-01-09T01:07:14.063Z,5.90
2023-01-09T01:09:43.366Z,6.20
2023-01-09T01:12:10.611Z,8.00
2023-01-09T01:14:37.984Z,9.00
2023-01-09T01:17:05.630Z,8.10
2023-01-09T01:19:34.110Z,7.20
2023-01-09T01:22:01.261Z,7.00
2023-01-09T01:24:28.718Z,6.60
2023-01-09T01:26:55.764Z,7.30
2023-01-09T01:29:22.923Z,8.70
2023-01-09T01:31:52.742Z,5.90
2023-01-09T01:34:19.672Z,7.20
2023-01-09T01:36:51.939Z,7.80
2023-01-09T01:39:18.885Z,7.30
2023-01-09T01:41:46.136Z,6.20
2023-01-09T01:45:01.519Z,7.80
2023-01-09T01:47:49.055Z,6.10
2023-01-09T01:50:21.929Z,6.50
2023-01-09T01:52:55.184Z,6.20
2023-01-09T01:55:22.267Z,5.20
2023-01-09T01:57:50.343Z,6.90
2023-01-09T02:00:18.824Z,7.10
2023-01-09T02:02:50.921Z,3.90
2023-01-09T02:05:18.239Z,7.70
2023-01-09T02:07:45.284Z,7.80
2023-01-09T02:10:12.358Z,8.20
2023-01-09T02:12:39.278Z,9.00
2023-01-09T02:15:11.542Z,8.30
2023-01-09T02:17:46.584Z,7.40
2023-01-09T02:20:37.797Z,8.10
2023-01-09T02:23:39.892Z,8.40
2023-01-09T02:26:40.399Z,7.50
2023-01-09T02:29:10.312Z,9.20
2023-01-09T02:31:47.771Z,9.10
2023-01-09T02:34:16.797Z,8.80
2023-01-09T02:36:51.345Z,8.70
2023-01-09T02:39:40.894Z,8.90
2023-01-09T02:42:17.263Z,7.90
2023-01-09T02:50:02.065Z,8.00
2023-01-09T02:52:52.346Z,8.60
2023-01-09T02:55:50.849Z,7.80
2023-01-09T02:58:35.194Z,7.50
2023-01-09T03:01:24.246Z,8.10
2023-01-09T03:03:57.543Z,7.70
2023-01-09T03:06:36.159Z,9.40
2023-01-09T03:09:17.348Z,7.50
2023-01-09T03:11:53.659Z,9.30
2023-01-09T03:14:21.784Z,10.80
2023-01-09T03:16:51.695Z,10.70
2023-01-09T03:19:20.480Z,8.40
2023-01-09T03:21:47.647Z,10.30
2023-01-09T03:24:16.227Z,9.60
2023-01-09T03:26:48.684Z,9.30
2023-01-09T03:29:15.939Z,9.20
2023-01-09T03:31:48.232Z,7.60
2023-01-09T03:34:15.374Z,9.50
2023-01-09T03:36:42.411Z,8.40
2023-01-09T03:39:11.400Z,7.90
2023-01-09T03:41:43.672Z,10.40
2023-01-09T03:44:10.619Z,10.20
2023-01-09T03:46:40.935Z,7.50
2023-01-09T03:49:13.000Z,9.30
2023-01-09T03:51:40.000Z,9.20
2023-01-09T03:54:07.004Z,10.20
2023-01-09T03:56:34.249Z,7.70
2023-01-09T03:59:01.289Z,9.30
2023-01-09T04:01:37.607Z,6.50
2023-01-09T04:04:06.901Z,7.70
2023-01-09T04:06:34.432Z,8.60
2023-01-09T04:09:01.475Z,8.00
2023-01-09T04:11:30.880Z,7.30
2023-01-09T04:13:58.023Z,9.80
2023-01-09T04:16:25.213Z,6.50
2023-01-09T04:18:52.521Z,8.10
2023-01-09T04:21:19.673Z,9.70
2023-01-09T04:23:46.831Z,8.50
2023-01-09T04:26:17.456Z,10.10
2023-01-09T04:28:44.701Z,9.00
2023-01-09T04:31:12.039Z,6.90
2023-01-09T04:33:40.027Z,9.10
2023-01-09T04:36:07.999Z,9.20
2023-01-09T04:38:40.378Z,8.60
2023-01-09T04:41:09.767Z,9.30
2023-01-09T04:43:36.823Z,10.30
2023-01-09T04:46:04.437Z,13.50
2023-01-09T04:48:31.630Z,9.40
2023-01-09T04:50:58.574Z,8.50
2023-01-09T04:53:26.152Z,7.70
2023-01-09T04:55:53.084Z,8.50
2023-01-09T04:58:20.843Z,8.90
2023-01-09T05:00:53.070Z,5.20
2023-01-09T05:03:20.360Z,8.30
2023-01-09T05:05:56.832Z,6.60
2023-01-09T05:08:23.977Z,6.20
2023-01-09T05:10:50.926Z,10.30
2023-01-09T05:13:23.396Z,9.70
2023-01-09T05:15:50.448Z,6.40
2023-01-09T05:18:17.801Z,9.30
2023-01-09T05:20:45.051Z,8.50
2023-01-09T05:23:12.211Z,9.10
2023-01-09T05:25:39.251Z,8.40
2023-01-09T05:28:07.221Z,7.10
2023-01-09T05:30:34.263Z,8.10
2023-01-09T05:33:01.310Z,7.10
2023-01-09T05:35:28.567Z,8.40
2023-01-09T05:37:56.431Z,8.10
2023-01-09T05:40:29.097Z,8.70
2023-01-09T05:43:01.490Z,8.00
2023-01-09T05:45:29.076Z,8.30
2023-01-09T05:47:57.215Z,9.60
2023-01-09T05:50:26.723Z,8.10
2023-01-09T05:52:53.869Z,9.90
2023-01-09T05:55:20.812Z,9.00
2023-01-09T05:57:49.716Z,6.50
2023-01-09T06:00:19.629Z,6.50
2023-01-09T06:02:46.815Z,7.50
2023-01-09T06:05:14.124Z,6.70
2023-01-09T06:07:41.578Z,6.30
2023-01-09T06:10:10.959Z,8.50
2023-01-09T06:12:38.341Z,7.80
2023-01-09T06:15:08.661Z,7.40
2023-01-09T06:17:37.365Z,9.00
2023-01-09T06:20:05.229Z,9.00
2023-01-09T06:22:32.775Z,8.60
2023-01-09T06:24:59.827Z,9.30
2023-01-09T06:27:27.589Z,10.80
2023-01-09T06:29:54.467Z,7.60
2023-01-09T06:32:21.372Z,8.40
2023-01-09T06:34:51.112Z,7.20
2023-01-09T06:37:18.134Z,8.90
2023-01-09T06:39:45.686Z,7.60
2023-01-09T06:42:12.731Z,8.60
2023-01-09T06:44:39.825Z,8.50
2023-01-09T06:47:06.929Z,8.80
2023-01-09T06:49:34.270Z,6.70
2023-01-09T06:52:05.146Z,7.10
2023-01-09T06:54:33.605Z,8.80
2023-01-09T06:57:00.684Z,7.30
2023-01-09T06:59:27.697Z,6.50
2023-01-09T07:01:55.713Z,5.80
2023-01-09T07:04:25.809Z,7.50
2023-01-09T07:06:53.036Z,6.60
2023-01-09T07:09:21.113Z,5.50
2023-01-09T07:11:48.570Z,6.40
2023-01-09T07:14:15.717Z,7.00
2023-01-09T07:16:43.067Z,7.20
2023-01-09T07:19:10.939Z,7.30
2023-01-09T07:21:38.095Z,9.20
2023-01-09T07:24:05.556Z,7.20
2023-01-09T07:26:34.532Z,6.50
2023-01-09T07:29:01.514Z,6.30
2023-01-09T07:31:29.214Z,7.30
2023-01-09T07:33:56.289Z,6.80
2023-01-09T07:36:26.247Z,6.50
2023-01-09T07:38:53.456Z,6.60
2023-01-09T07:41:20.604Z,5.80
2023-01-09T07:43:50.582Z,7.00
2023-01-09T07:46:17.544Z,6.30
2023-01-09T07:48:44.519Z,6.10
2023-01-09T07:51:14.168Z,5.10
2023-01-09T07:53:41.104Z,4.80
2023-01-09T07:56:07.990Z,6.40
2023-01-09T07:58:35.083Z,6.90
2023-01-09T08:01:04.601Z,5.90
2023-01-09T08:03:33.158Z,6.00
2023-01-09T08:06:00.377Z,5.90
2023-01-09T08:08:27.658Z,6.60
2023-01-09T08:10:54.800Z,7.20
2023-01-09T08:13:21.975Z,7.40
2023-01-09T08:15:49.088Z,6.10
2023-01-09T08:18:16.049Z,5.70
2023-01-09T08:20:43.400Z,6.80
2023-01-09T08:23:10.582Z,7.60
2023-01-09T08:25:37.605Z,6.40
2023-01-09T08:28:05.870Z,6.30
2023-01-09T08:30:34.766Z,6.60
2023-01-09T08:33:02.017Z,5.30
2023-01-09T08:35:29.367Z,6.50
2023-01-09T08:37:56.412Z,6.50
2023-01-09T08:40:25.874Z,6.80
2023-01-09T08:43:12.491Z,6.00
2023-01-09T08:45:58.006Z,5.00
2023-01-09T08:48:25.359Z,6.90
2023-01-09T08:50:53.839Z,6.70
2023-01-09T08:53:21.507Z,5.90
2023-01-09T08:55:49.476Z,6.20
2023-01-09T08:58:16.628Z,6.10
2023-01-09T09:00:46.025Z,6.80
2023-01-09T09:03:13.284Z,7.60
2023-01-09T09:05:40.230Z,6.90
2023-01-09T09:08:07.269Z,6.10
2023-01-09T09:10:34.421Z,6.50
2023-01-09T09:13:01.870Z,7.60
2023-01-09T09:15:29.440Z,5.60
2023-01-09T09:17:58.326Z,6.60
2023-01-09T09:20:27.728Z,5.60
2023-01-09T09:22:58.174Z,6.60
2023-01-09T09:25:26.130Z,6.60
2023-01-09T09:27:55.963Z,6.80
2023-01-09T09:30:23.859Z,6.50
2023-01-09T09:32:52.874Z,5.90
2023-01-09T09:35:20.928Z,6.00
2023-01-09T09:37:58.585Z,6.40
2023-01-09T09:40:38.205Z,6.70
2023-01-09T09:44:00.864Z,6.10
2023-01-09T09:46:47.592Z,6.00
2023-01-09T09:49:19.481Z,5.30
2023-01-09T09:51:50.464Z,5.90
2023-01-09T09:54:24.720Z,5.90
2023-01-09T09:56:54.081Z,5.70
2023-01-09T09:59:22.568Z,5.70
2023-01-09T10:01:58.858Z,5.60
2023-01-09T10:04:27.624Z,5.70
2023-01-09T10:07:00.159Z,5.30
2023-01-09T10:09:45.433Z,5.20
2023-01-09T10:12:27.261Z,4.90
2023-01-09T10:14:59.157Z,4.90
2023-01-09T10:17:28.984Z,4.90
2023-01-09T10:20:08.508Z,5.70
2023-01-09T10:22:51.004Z,8.10
2023-01-09T10:25:40.219Z,5.80
2023-01-09T10:28:26.664Z,4.70
2023-01-09T10:31:22.798Z,4.80
2023-01-09T10:33:55.713Z,5.50
2023-01-09T10:36:38.794Z,4.90
2023-01-09T10:39:08.212Z,4.70
2023-01-09T10:41:50.471Z,4.50
2023-01-09T10:44:24.982Z,4.10
2023-01-09T10:46:53.902Z,4.50
2023-01-09T10:49:21.726Z,4.70
2023-01-09T10:52:17.760Z,4.20
2023-01-09T10:57:24.154Z,3.80
2023-01-09T10:59:53.552Z,4.20
2023-01-09T11:02:31.490Z,4.00
2023-01-09T11:04:58.479Z,4.30
2023-01-09T11:07:30.569Z,3.90
2023-01-09T11:10:03.058Z,3.90
2023-01-09T11:12:32.391Z,3.40
2023-01-09T11:15:20.649Z,3.50
2023-01-09T11:17:48.477Z,4.40
2023-01-09T11:20:19.966Z,4.00
2023-01-09T11:22:50.877Z,3.50
2023-01-09T11:25:19.220Z,4.20
2023-01-09T11:28:01.652Z,4.30
2023-01-09T11:30:30.488Z,5.60
2023-01-09T11:32:58.258Z,6.10
2023-01-09T11:35:34.960Z,5.60
2023-01-09T11:38:03.277Z,4.20
2023-01-09T11:40:48.913Z,4.10
2023-01-09T11:43:21.155Z,4.40
2023-01-09T11:46:01.147Z,4.80
2023-01-09T11:48:39.229Z,6.50
2023-01-09T11:51:21.728Z,4.90
2023-01-09T11:54:14.747Z,4.40
2023-01-09T11:56:41.915Z,4.00
2023-01-09T11:59:17.365Z,4.40
2023-01-09T12:02:15.704Z,4.00
2023-01-09T12:04:52.345Z,4.90
2023-01-09T12:07:39.576Z,3.30
2023-01-09T12:10:10.055Z,3.10
2023-01-09T12:12:40.260Z,4.00
2023-01-09T12:15:14.368Z,3.70
2023-01-09T12:18:08.144Z,3.00
2023-01-09T12:20:47.991Z,3.90
2023-01-09T12:23:47.298Z,3.70
2023-01-09T12:26:25.305Z,3.80
2023-01-09T12:29:19.630Z,3.20
2023-01-09T12:31:52.337Z,3.20
2023-01-09T12:34:51.079Z,3.00
2023-01-09T12:37:49.292Z,3.20
2023-01-09T12:40:16.460Z,3.20
2023-01-09T12:43:09.859Z,2.90
2023-01-09T12:45:47.194Z,2.90
2023-01-09T12:48:41.828Z,3.00
2023-01-09T12:51:44.687Z,3.40
2023-01-09T12:54:32.601Z,2.70
2023-01-09T12:57:06.275Z,2.90
2023-01-09T12:59:41.000Z,3.10
2023-01-09T13:02:08.237Z,3.20
2023-01-09T13:04:41.600Z,3.50
2023-01-09T13:07:17.134Z,3.00
2023-01-09T13:09:55.532Z,2.80
2023-01-09T13:12:22.747Z,3.10
2023-01-09T13:15:00.453Z,3.80
2023-01-09T13:17:29.794Z,3.50
2023-01-09T13:19:56.984Z,3.90
2023-01-09T13:22:25.122Z,3.60
2023-01-09T13:25:14.614Z,3.70
2023-01-09T13:27:42.005Z,3.20
2023-01-09T13:30:34.473Z,3.30
2023-01-09T13:33:23.572Z,3.60
2023-01-09T13:35:51.063Z,3.70
2023-01-09T13:38:22.574Z,3.50
2023-01-09T13:41:28.895Z,3.80
2023-01-09T13:43:59.252Z,2.70
2023-01-09T13:46:53.367Z,3.70
2023-01-09T13:49:52.671Z,3.20
2023-01-09T13:52:25.681Z,4.00
2023-01-09T13:54:53.103Z,3.70
2023-01-09T13:57:20.341Z,3.80
2023-01-09T13:59:50.119Z,4.00
2023-01-09T14:02:36.137Z,3.90
2023-01-09T14:05:06.672Z,4.40
2023-01-09T14:07:35.406Z,3.90
2023-01-09T14:10:04.809Z,3.90
2023-01-09T14:12:38.062Z,4.20
2023-01-09T14:15:05.664Z,4.40
2023-01-09T14:17:37.012Z,3.70
2023-01-09T14:20:07.107Z,3.70
2023-01-09T14:22:45.682Z,3.50
2023-01-09T14:25:28.064Z,3.40
2023-01-09T14:27:55.822Z,3.70
2023-01-09T14:30:25.725Z,3.30
2023-01-09T14:33:27.306Z,3.00
2023-01-09T14:35:56.280Z,3.60
2023-01-09T14:38:50.981Z,3.50
2023-01-09T14:41:47.322Z,3.30
2023-01-09T14:44:27.671Z,3.50
2023-01-09T14:46:55.441Z,2.60
2023-01-09T14:49:38.341Z,3.10
2023-01-09T14:52:30.016Z,3.20
2023-01-09T14:54:59.088Z,3.00
2023-01-09T14:57:33.704Z,4.00
2023-01-09T15:00:16.519Z,3.20
2023-01-09T15:02:44.587Z,3.10
2023-01-09T15:05:23.236Z,3.50
2023-01-09T15:07:58.969Z,3.20
2023-01-09T15:10:34.140Z,3.70
2023-01-09T15:13:02.784Z,5.20
2023-01-09T15:15:32.505Z,3.20
2023-01-09T15:18:03.937Z,3.50
2023-01-09T15:20:31.811Z,4.30
2023-01-09T15:23:00.395Z,2.30
2023-01-09T15:25:44.613Z,3.30
2023-01-09T15:28:30.264Z,3.20
2023-01-09T15:31:10.795Z,2.90
2023-01-09T15:33:38.923Z,3.10
2023-01-09T15:36:25.464Z,3.90
2023-01-09T15:38:52.820Z,3.40
2023-01-09T15:41:48.234Z,3.90
2023-01-09T15:44:20.398Z,3.30
2023-01-09T15:46:49.587Z,3.60
2023-01-09T15:49:17.050Z,3.80
2023-01-09T15:51:45.748Z,3.60
2023-01-09T15:54:29.886Z,3.60
2023-01-09T15:57:21.004Z,4.10
2023-01-09T15:59:48.047Z,3.90
2023-01-09T16:02:36.291Z,3.30
2023-01-09T16:05:14.554Z,3.10
2023-01-09T16:07:48.260Z,3.60
2023-01-09T16:10:22.623Z,3.80
2023-01-09T16:12:52.178Z,3.10
2023-01-09T16:15:19.173Z,3.30
2023-01-09T16:18:31.284Z,3.60
2023-01-09T16:21:05.454Z,3.00
2023-01-09T16:23:40.524Z,4.60
2023-01-09T16:26:13.643Z,3.50
2023-01-09T16:28:42.204Z,3.20
2023-01-09T16:31:23.288Z,3.40
2023-01-09T16:34:05.899Z,3.30
2023-01-09T16:36:39.005Z,3.80
2023-01-09T16:39:10.533Z,3.60
2023-01-09T16:41:57.439Z,3.50
2023-01-09T16:44:27.361Z,3.20
2023-01-09T16:46:54.713Z,2.90
2023-01-09T16:49:23.733Z,2.30
2023-01-09T16:51:51.468Z,2.90
2023-01-09T16:54:20.188Z,3.10
2023-01-09T16:56:48.755Z,2.70
2023-01-09T16:59:20.111Z,2.80
2023-01-09T17:01:47.745Z,2.40
2023-01-09T17:04:16.748Z,2.70
2023-01-09T17:06:43.887Z,3.00
2023-01-09T17:09:11.971Z,3.30
2023-01-09T17:11:39.621Z,3.00
2023-01-09T17:14:10.849Z,3.30
2023-01-09T17:16:41.194Z,2.30
2023-01-09T17:19:26.479Z,3.10
2023-01-09T17:21:53.819Z,3.30
2023-01-09T17:24:39.668Z,2.80
2023-01-09T17:27:32.569Z,4.20
2023-01-09T17:30:05.571Z,3.20
2023-01-09T17:32:41.399Z,3.20
2023-01-09T17:35:12.546Z,3.40
2023-01-09T17:37:39.701Z,2.90
2023-01-09T17:40:23.648Z,3.20
2023-01-09T17:42:51.096Z,3.20
2023-01-09T17:45:18.665Z,3.80
2023-01-09T17:47:45.733Z,3.20
2023-01-09T17:50:19.212Z,3.30
2023-01-09T17:52:47.884Z,3.40
2023-01-09T17:55:14.965Z,3.90
2023-01-09T17:57:42.593Z,3.70
2023-01-09T18:00:27.367Z,4.20
2023-01-09T18:02:55.344Z,3.80
2023-01-09T18:05:23.404Z,3.50
2023-01-09T18:07:50.550Z,3.80
2023-01-09T18:10:19.452Z,3.40
2023-01-09T18:12:48.745Z,3.00
2023-01-09T18:15:16.499Z,3.90
2023-01-09T18:17:44.264Z,3.30
2023-01-09T18:20:13.772Z,3.20
2023-01-09T18:22:41.025Z,3.90
2023-01-09T18:25:13.098Z,3.50
2023-01-09T18:27:40.242Z,3.70
2023-01-09T18:30:13.341Z,3.60
2023-01-09T18:32:41.047Z,3.80
2023-01-09T18:35:10.718Z,3.30
2023-01-09T18:37:37.811Z,3.50
2023-01-09T18:40:08.374Z,3.90
2023-01-09T18:42:40.373Z,3.20
2023-01-09T18:45:08.031Z,3.20
2023-01-09T18:47:35.049Z,4.10
2023-01-09T18:50:03.019Z,3.50
2023-01-09T18:52:30.585Z,4.00
2023-01-09T18:54:57.493Z,3.70
2023-01-09T18:57:24.535Z,3.40
2023-01-09T18:59:51.684Z,3.90
2023-01-09T19:02:22.969Z,3.40
2023-01-09T19:04:51.140Z,4.30
2023-01-09T19:07:18.295Z,3.70
2023-01-09T19:09:45.852Z,3.10
2023-01-09T19:12:13.006Z,3.90
2023-01-09T19:14:42.193Z,3.50
2023-01-09T19:17:09.454Z,3.60
2023-01-09T19:19:36.703Z,4.00
2023-01-09T19:22:03.846Z,4.00
2023-01-09T19:24:32.535Z,4.20
2023-01-09T19:27:05.004Z,3.90
2023-01-09T19:29:34.670Z,4.00
2023-01-09T19:32:02.693Z,3.80
2023-01-09T19:34:31.063Z,4.00
2023-01-09T19:36:58.496Z,4.00
2023-01-09T19:39:26.909Z,3.00
2023-01-09T19:41:54.055Z,4.30
2023-01-09T19:44:21.143Z,3.50
2023-01-09T19:46:48.460Z,3.30
2023-01-09T19:49:15.814Z,4.00
2023-01-09T19:51:42.864Z,3.70
2023-01-09T19:54:10.412Z,3.20
2023-01-09T19:56:43.500Z,2.90
2023-01-09T19:59:11.468Z,3.40
2023-01-09T20:01:41.199Z,2.80
2023-01-09T20:04:13.128Z,3.60
2023-01-09T20:06:48.073Z,3.50
2023-01-09T20:09:17.185Z,3.40
2023-01-09T20:11:44.435Z,3.80
2023-01-09T20:14:15.176Z,3.70
2023-01-09T20:16:42.638Z,3.70
2023-01-09T20:19:11.301Z,2.90
2023-01-09T20:21:38.452Z,3.80
2023-01-09T20:24:08.190Z,4.40
2023-01-09T20:26:35.928Z,3.70
2023-01-09T20:29:05.115Z,3.90
2023-01-09T20:31:32.614Z,3.10
2023-01-09T20:33:59.941Z,3.50
2023-01-09T20:36:29.609Z,3.30
2023-01-09T20:38:57.814Z,4.20
2023-01-09T20:41:28.959Z,3.70
2023-01-09T20:43:59.485Z,3.30
2023-01-09T20:46:31.452Z,3.60
2023-01-09T20:49:04.127Z,5.90
2023-01-09T20:51:41.036Z,3.50
2023-01-09T20:54:08.161Z,3.30
2023-01-09T20:56:36.546Z,3.60
2023-01-09T20:59:05.836Z,2.70
2023-01-09T21:01:34.414Z,2.20
2023-01-09T21:04:08.296Z,3.10
2023-01-09T21:06:35.834Z,3.30
2023-01-09T21:09:03.801Z,3.60
2023-01-09T21:11:33.563Z,2.50
2023-01-09T21:14:05.633Z,3.00
2023-01-09T21:16:35.768Z,2.60
2023-01-09T21:19:02.803Z,2.90
2023-01-09T21:21:30.557Z,3.60
2023-01-09T21:24:00.435Z,3.10
2023-01-09T21:26:28.543Z,3.40
2023-01-09T21:28:56.411Z,3.20
2023-01-09T21:31:29.208Z,3.30
2023-01-09T21:33:56.544Z,3.30
2023-01-09T21:36:29.125Z,2.30
2023-01-09T21:38:59.245Z,2.00
2023-01-09T21:41:45.039Z,3.60
2023-01-09T21:44:36.346Z,4.70
2023-01-09T21:47:03.508Z,3.90
2023-01-09T21:49:34.432Z,3.10
2023-01-09T21:52:03.764Z,3.50
2023-01-09T21:54:31.091Z,3.50
2023-01-09T21:56:58.794Z,2.60
2023-01-09T21:59:29.109Z,3.30
2023-01-09T22:01:56.753Z,3.10
2023-01-09T22:04:28.043Z,3.60
2023-01-09T22:06:55.743Z,3.00
2023-01-09T22:09:22.799Z,2.60
2023-01-09T22:11:49.637Z,2.90
2023-01-09T22:14:18.012Z,2.90
2023-01-09T22:16:45.217Z,3.60
2023-01-09T22:19:17.638Z,3.70
2023-01-09T22:21:45.509Z,3.60
2023-01-09T22:24:13.573Z,3.40
2023-01-09T22:26:40.927Z,3.80
2023-01-09T22:29:13.323Z,3.50
2023-01-09T22:31:40.448Z,3.40
2023-01-09T22:34:11.258Z,2.90
2023-01-09T22:36:38.685Z,3.40
2023-01-09T22:39:06.302Z,2.40
2023-01-09T22:41:33.357Z,3.20
2023-01-09T22:44:00.294Z,3.40
2023-01-09T22:46:27.341Z,2.80
2023-01-09T22:48:54.804Z,3.50
2023-01-09T22:51:22.496Z,4.30
2023-01-09T22:53:50.121Z,2.80
2023-01-09T22:56:20.686Z,3.60
2023-01-09T22:58:51.588Z,3.10
2023-01-09T23:01:19.270Z,3.00
2023-01-09T23:03:46.400Z,2.60
2023-01-09T23:06:20.119Z,2.80
2023-01-09T23:08:49.839Z,2.70
2023-01-09T23:11:43.583Z,2.50
2023-01-09T23:14:10.760Z,3.00
2023-01-09T23:16:40.281Z,2.80
2023-01-09T23:19:09.440Z,2.60
2023-01-09T23:21:36.693Z,2.80
2023-01-09T23:24:06.464Z,3.50
2023-01-09T23:26:34.181Z,2.90
2023-01-09T23:29:01.438Z,3.00
2023-01-09T23:31:28.923Z,2.80
2023-01-09T23:34:01.454Z,2.30
2023-01-09T23:36:28.603Z,2.60
2023-01-09T23:39:02.354Z,2.70
2023-01-09T23:41:48.503Z,2.70
2023-01-09T23:44:18.016Z,2.40
2023-01-09T23:46:47.522Z,2.60
2023-01-09T23:49:14.865Z,1.70
2023-01-09T23:51:42.013Z,2.30
2023-01-09T23:54:09.267Z,2.70
2023-01-09T23:56:38.464Z,2.60
2023-01-09T23:59:11.772Z,2.30
